Date,TemperatureHighF,TemperatureAvgF,TemperatureLowF,DewpointHighF,DewpointAvgF,DewpointLowF,HumidityHigh,HumidityAvg,HumidityLow,PressureMaxIn,PressureMinIn,WindSpeedMaxMPH,WindSpeedAvgMPH,GustSpeedMaxMPH,PrecipitationSumIn
2013-1-1,31.4,25.8,12.4,25.0,14.3,2.2,81,62,44,29.88,29.62,24,6,24,0.00
2013-1-2,23.4,13.3,5.3,10.2,2.1,-5.7,75,61,42,30.07,29.85,25,5,25,0.00
2013-1-3,22.7,11.7,2.5,5.6,0.4,-7.2,77,60,43,30.10,29.95,12,3,12,0.00
2013-1-4,33.2,24.4,10.8,24.1,17.1,3.5,89,74,66,29.95,29.74,18,3,18,0.00
2013-1-5,32.7,28.0,25.1,24.5,19.5,16.3,74,70,67,30.25,29.74,11,4,11,0.00
2013-1-6,36.8,28.9,21.3,27.4,22.6,15.2,87,77,67,30.23,29.91,17,2,17,0.00
2013-1-7,31.8,26.1,20.5,27.6,20.5,14.1,91,79,65,30.39,29.93,14,3,14,0.00
2013-1-8,42.2,32.2,20.1,26.6,23.5,13.9,94,71,49,30.35,30.19,21,3,21,0.00
2013-1-9,41.6,32.1,22.3,36.2,27.5,20.6,93,83,72,30.41,29.89,16,2,16,0.00
2013-1-10,43.5,38.0,32.5,33.4,27.3,22.7,88,66,50,30.52,29.91,30,7,30,0.00
2013-1-11,37.3,32.4,26.8,35.6,26.1,21.3,96,78,65,30.54,30.24,11,2,11,0.02
2013-1-12,43.7,39.4,35.5,41.0,38.4,34.8,99,96,89,30.25,30.10,7,1,7,0.04
2013-1-13,46.0,41.5,38.5,46.0,41.2,38.1,100,99,98,30.15,29.94,14,2,14,0.01
2013-1-14,59.2,46.5,37.0,50.9,40.3,26.5,100,81,51,30.22,29.84,19,4,19,0.00
2013-1-15,37.4,34.6,30.8,27.3,25.5,22.9,83,69,60,30.32,30.22,13,1,13,0.00
2013-1-16,33.6,30.6,27.8,32.0,27.7,22.8,97,90,66,30.27,29.78,11,3,13,0.00
2013-1-17,39.5,29.7,17.9,32.0,21.5,0.6,97,73,34,30.12,29.77,21,4,21,0.33
2013-1-18,19.7,15.1,10.2,5.1,-3.1,-11.0,58,44,30,30.42,30.09,17,4,17,0.00
2013-1-19,41.2,33.2,16.4,30.4,20.2,3.1,69,59,51,30.36,29.85,21,4,21,0.05
2013-1-20,49.6,39.5,25.8,35.6,26.6,7.7,82,61,36,29.85,29.43,32,8,32,0.00
2013-1-21,25.9,22.1,16.7,15.4,4.7,-1.8,73,47,34,30.05,29.83,25,6,26,0.00
2013-1-22,22.4,16.2,8.9,15.0,6.5,-4.6,84,66,50,30.04,29.76,19,5,19,0.00
2013-1-23,8.9,3.6,-0.7,-4.3,-12.1,-17.3,62,48,33,30.11,30.03,25,6,25,0.00
2013-1-24,16.4,5.7,-3.4,-5.7,-10.0,-14.6,66,49,29,30.14,29.95,21,6,21,0.00
2013-1-25,21.6,11.5,0.8,3.8,-2.2,-8.0,72,54,37,30.23,30.06,11,3,11,0.00
2013-1-26,21.2,15.7,10.1,3.2,-1.8,-6.5,60,46,30,30.16,29.99,22,6,22,0.00
2013-1-27,27.0,17.9,9.8,5.4,-0.6,-6.3,62,44,30,30.44,30.15,24,5,24,0.00
2013-1-28,28.1,21.0,11.1,20.9,10.1,-6.9,93,66,27,30.44,30.06,9,2,9,0.00
2013-1-29,32.0,27.0,21.2,29.9,23.7,18.7,93,87,79,30.21,30.07,11,2,11,0.02
2013-1-30,50.7,42.7,31.6,50.3,42.2,29.8,99,98,93,30.15,29.43,22,5,22,0.26
2013-1-31,53.4,43.6,30.0,53.1,33.4,11.7,100,70,42,29.47,28.86,44,12,44,0.13
2013-2-1,30.0,25.2,17.3,18.3,8.9,1.9,65,50,37,30.04,29.47,25,8,25,0.00
2013-2-2,25.7,20.3,11.4,14.9,6.9,1.9,75,56,42,30.21,30.04,13,2,14,0.00
2013-2-3,27.3,24.7,21.0,18.6,15.8,13.4,84,69,58,30.05,29.69,17,4,17,0.00
2013-2-4,28.4,23.8,18.1,15.8,7.8,-3.5,79,52,30,29.87,29.66,27,7,27,0.00
2013-2-5,25.4,18.6,11.7,15.6,4.3,-3.6,66,53,38,30.03,29.87,12,3,12,0.00
2013-2-6,37.1,26.2,18.8,24.5,14.5,-5.7,85,63,30,30.28,29.92,20,5,20,0.00
2013-2-7,22.0,17.1,11.8,3.1,-2.7,-6.4,54,41,32,30.56,30.28,18,5,18,0.00
2013-2-8,17.5,14.5,11.5,15.7,11.3,1.2,93,87,51,30.56,29.85,35,9,35,0.00
2013-2-9,20.5,15.5,11.2,13.9,10.0,6.6,92,80,61,30.12,29.65,41,12,41,0.00
2013-2-10,36.7,24.2,14.0,8.4,3.1,-1.8,64,42,19,30.35,30.12,21,5,21,0.00
2013-2-11,41.1,25.6,13.6,40.6,21.4,5.9,98,85,54,30.34,29.58,20,2,20,0.47
2013-2-12,44.7,36.3,29.1,32.6,30.0,28.3,98,79,55,29.78,29.53,20,4,20,0.01
2013-2-13,42.9,36.0,29.0,29.0,26.3,23.8,82,68,49,29.83,29.72,11,2,11,0.00
2013-2-14,41.5,35.3,30.6,28.2,24.1,19.9,82,64,44,29.99,29.70,18,3,18,0.00
2013-2-15,44.9,35.8,25.2,37.6,31.5,22.1,94,84,72,29.99,29.89,22,3,22,0.00
2013-2-16,36.7,33.5,28.4,34.0,28.7,13.5,95,83,53,29.94,29.76,17,3,17,0.01
2013-2-17,28.4,22.0,18.5,17.5,11.3,2.5,89,65,45,29.76,29.20,41,12,41,0.00
2013-2-18,32.2,22.5,16.1,8.4,2.7,-3.0,57,43,25,30.06,29.48,33,9,33,0.00
2013-2-19,44.3,32.7,20.4,43.2,18.9,-1.7,97,60,32,30.11,29.54,21,5,21,0.46
2013-2-20,43.9,33.8,26.7,42.8,27.1,17.1,98,77,63,29.66,29.44,20,6,20,0.04
2013-2-21,28.8,26.2,23.0,21.4,15.9,9.5,74,65,52,30.15,29.66,29,8,29,0.00
2013-2-22,37.9,31.6,26.7,25.0,22.3,20.5,83,69,52,30.39,30.14,16,3,16,0.00
2013-2-23,36.3,33.0,29.6,34.2,29.8,24.5,95,88,81,30.35,30.00,17,4,17,0.07
2013-2-24,35.7,31.2,28.4,34.3,30.6,27.9,98,97,94,30.00,29.77,20,5,20,0.05
2013-2-25,39.3,32.4,26.3,32.4,29.4,25.3,98,89,71,30.24,29.90,11,2,11,0.24
2013-2-26,40.1,36.2,32.8,31.8,30.7,28.2,94,81,64,30.36,30.23,11,2,11,0.01
2013-2-27,38.6,35.3,31.8,35.6,33.0,30.4,99,91,76,30.24,29.63,35,13,35,0.32
2013-2-28,40.4,35.2,32.2,40.1,34.9,30.9,99,99,95,29.63,29.52,25,4,25,0.32
2013-3-1,36.3,33.4,31.7,32.2,30.5,29.2,97,89,77,29.67,29.53,15,4,15,0.01
2013-3-2,42.4,35.0,31.3,31.9,30.7,29.1,97,85,61,29.65,29.59,16,4,16,0.02
2013-3-3,41.4,35.7,31.0,35.2,31.0,27.3,98,84,66,29.62,29.52,14,4,15,0.08
2013-3-4,36.8,33.3,31.2,29.8,26.5,23.6,89,76,69,29.68,29.50,19,8,22,0.00
2013-3-5,44.1,37.9,32.8,35.4,31.8,25.2,89,78,70,30.10,29.68,19,6,19,0.00
2013-3-6,37.9,35.5,32.4,33.8,30.8,27.8,94,83,73,30.23,30.10,32,12,32,0.00
2013-3-7,35.9,33.5,30.7,29.1,27.1,25.9,89,77,68,30.19,30.07,30,11,30,0.00
2013-3-8,45.1,36.4,28.8,28.4,26.3,24.0,95,69,46,30.18,30.02,29,9,29,0.00
2013-3-9,44.2,35.8,28.8,32.4,27.7,23.4,95,73,53,30.38,30.18,21,5,21,0.00
2013-3-10,38.9,33.6,27.5,32.3,29.3,24.7,93,84,73,30.43,30.30,14,3,14,0.00
2013-3-11,43.4,38.9,34.8,39.8,35.6,32.2,95,88,76,30.32,30.15,19,5,19,0.00
2013-3-12,48.6,44.4,40.4,48.2,43.2,39.3,99,95,91,30.17,29.72,24,6,26,0.57
2013-3-13,48.1,43.3,35.7,47.0,38.7,29.7,99,84,68,29.74,29.66,19,3,19,0.01
2013-3-14,39.7,32.6,21.7,29.7,22.2,8.0,85,66,44,29.76,29.61,22,5,22,0.00
2013-3-15,38.4,26.5,17.5,26.3,12.3,4.9,82,56,32,29.81,29.59,21,5,21,0.00
2013-3-16,36.1,30.5,25.9,26.5,16.0,11.7,84,55,40,29.90,29.63,18,4,18,0.00
2013-3-17,31.7,26.5,20.5,14.7,8.2,-0.1,68,47,27,30.32,29.89,29,6,31,0.00
2013-3-18,34.6,26.3,17.1,21.6,8.6,-0.9,66,48,27,30.45,30.27,13,3,13,0.00
2013-3-19,33.4,29.1,23.2,30.1,26.8,21.6,97,92,65,30.27,29.66,37,12,37,0.00
2013-3-20,36.9,28.8,21.1,27.4,21.9,19.4,96,77,52,29.74,29.62,23,5,23,0.04
2013-3-21,37.3,30.3,22.9,26.0,20.6,16.5,89,68,45,29.78,29.60,18,3,18,0.00
2013-3-22,39.2,31.9,25.7,25.3,20.2,17.1,89,62,44,29.66,29.59,15,3,15,0.00
2013-3-23,40.9,33.0,25.2,25.0,21.9,16.8,76,64,46,29.67,29.51,30,7,30,0.00
2013-3-24,46.8,38.3,31.1,27.7,25.3,23.2,74,60,44,29.78,29.67,22,5,22,0.00
2013-3-25,40.7,36.4,31.8,35.3,30.1,25.5,84,78,69,29.77,29.58,18,5,18,0.00
2013-3-26,50.1,41.0,32.9,28.8,25.4,22.6,76,55,36,29.73,29.56,19,5,19,0.00
2013-3-27,50.2,39.5,30.8,36.8,30.1,23.5,94,70,45,29.86,29.72,20,4,20,0.07
2013-3-28,49.2,41.9,36.9,36.5,33.7,30.7,94,74,51,29.98,29.86,14,4,14,0.01
2013-3-29,54.7,45.3,37.4,36.7,32.6,30.0,79,62,42,30.01,29.94,17,4,19,0.00
2013-3-30,54.7,43.2,35.4,34.2,30.0,20.6,81,62,28,30.09,29.98,17,3,17,0.00
2013-3-31,48.7,40.9,28.5,39.7,30.4,19.9,83,66,45,30.12,29.83,21,4,21,0.00
2013-4-1,53.6,43.1,35.1,44.3,37.7,17.4,98,82,46,29.83,29.48,22,6,22,0.58
2013-4-2,37.6,32.8,28.2,17.7,13.5,8.7,57,45,33,29.84,29.70,26,7,26,0.00
2013-4-3,44.9,35.7,28.9,19.4,13.7,7.1,62,42,22,30.06,29.82,30,8,30,0.00
2013-4-4,51.5,39.4,29.5,35.6,20.6,9.6,80,50,21,30.22,29.97,24,5,24,0.00
2013-4-5,52.6,44.2,38.2,34.9,29.3,23.7,71,56,36,29.97,29.63,21,6,21,0.00
2013-4-6,40.9,34.3,27.2,26.3,10.3,2.6,82,38,21,30.35,29.82,29,7,29,0.00
2013-4-7,45.0,40.6,30.7,39.9,30.1,10.1,88,67,40,30.35,29.95,34,7,34,0.00
2013-4-8,59.7,48.9,40.0,41.0,38.1,35.1,92,68,41,30.13,29.90,16,3,16,0.00
2013-4-9,51.2,44.2,41.4,45.3,41.2,36.7,98,89,77,30.12,29.88,16,3,16,0.12
2013-4-10,53.6,45.5,42.0,48.2,43.3,40.4,98,92,81,30.01,29.88,13,2,13,0.45
2013-4-11,49.6,44.6,41.4,43.6,35.6,20.8,98,73,38,30.18,29.87,22,4,22,0.05
2013-4-12,41.4,36.0,34.0,35.8,27.7,17.7,98,74,44,30.26,29.88,25,10,25,0.17
2013-4-13,47.4,38.5,33.1,39.4,35.8,32.6,98,90,70,29.92,29.80,18,4,20,0.07
2013-4-14,49.6,44.3,39.2,39.8,37.3,32.2,95,77,56,30.19,29.90,16,3,16,0.01
2013-4-15,47.9,41.6,33.2,40.4,36.2,30.3,97,81,62,30.42,30.19,21,4,21,0.00
2013-4-16,50.2,44.6,39.6,47.4,41.1,38.6,97,88,72,30.42,29.96,23,6,26,0.00
2013-4-17,61.4,54.4,46.9,52.6,35.5,27.9,90,51,29,30.34,29.96,16,5,22,0.00
2013-4-18,48.0,44.3,38.9,41.6,34.9,26.5,84,70,53,30.48,30.18,15,5,17,0.00
2013-4-19,63.8,53.4,45.6,58.0,50.9,41.4,99,92,79,30.17,29.62,19,6,26,0.00
2013-4-20,55.9,51.6,43.9,55.8,39.8,24.5,100,68,38,30.16,29.57,18,7,22,0.18
2013-4-21,51.5,42.4,35.6,31.3,24.7,18.0,75,51,28,30.70,30.16,13,4,15,0.00
2013-4-22,44.9,40.7,36.3,36.9,29.9,24.1,80,65,52,30.82,30.65,18,6,18,0.00
2013-4-23,41.9,39.0,35.2,40.7,36.0,29.4,96,89,68,30.65,30.20,13,6,18,0.03
2013-4-24,59.7,48.4,41.7,51.1,45.3,40.8,98,89,73,30.20,29.77,15,5,15,0.04
2013-4-25,62.2,53.6,47.0,50.8,39.9,33.0,96,63,35,30.28,29.77,15,5,30,0.03
2013-4-26,50.7,45.6,39.6,39.1,35.4,30.0,94,68,51,30.45,30.28,12,3,15,0.00
2013-4-27,50.7,44.9,37.2,44.8,40.6,35.4,95,85,67,30.42,30.32,14,3,17,0.00
2013-4-28,59.6,49.3,38.0,44.3,39.3,31.8,93,71,38,30.35,30.26,14,3,14,0.00
2013-4-29,60.7,49.6,41.1,49.0,44.2,39.6,96,82,57,30.28,30.22,10,3,15,0.00
2013-4-30,64.4,51.0,39.7,47.0,39.5,28.0,97,70,26,30.39,30.25,12,2,12,0.00
2013-5-1,62.6,51.6,38.1,47.0,38.0,32.0,87,62,35,30.47,30.38,14,3,15,0.00
2013-5-2,57.1,48.5,43.9,48.8,42.6,38.2,96,80,62,30.54,30.41,21,4,24,0.00
2013-5-3,57.3,48.2,41.2,44.7,41.6,37.9,90,78,61,30.56,30.40,15,4,16,0.00
2013-5-4,51.0,46.2,39.7,43.5,41.0,38.0,96,83,66,30.42,30.34,13,3,14,0.00
2013-5-5,57.4,46.9,35.6,43.0,39.6,34.6,96,78,52,30.36,30.27,12,2,15,0.00
2013-5-6,59.0,48.6,39.3,48.1,44.7,38.5,98,87,66,30.30,30.18,15,3,15,0.00
2013-5-7,66.0,52.0,43.5,56.2,49.1,43.2,99,91,64,30.20,30.10,18,3,18,0.01
2013-5-8,68.5,55.6,48.8,59.9,53.3,48.3,99,92,73,30.24,30.11,12,3,12,0.02
2013-5-9,56.7,52.0,50.2,56.2,51.6,49.9,100,99,96,30.11,29.90,12,3,12,0.83
2013-5-10,68.1,55.2,48.7,61.7,53.8,48.7,100,95,79,29.96,29.91,8,2,11,0.01
2013-5-11,63.4,55.8,50.2,59.7,54.8,49.9,99,96,87,29.93,29.68,13,4,20,0.18
2013-5-12,69.2,59.5,50.3,61.6,53.3,37.4,100,82,49,29.74,29.53,10,2,14,0.07
2013-5-13,57.1,50.2,42.0,37.3,32.3,30.2,68,51,37,30.01,29.74,15,4,20,0.00
2013-5-14,57.2,49.1,42.7,42.3,35.4,26.7,80,61,33,30.04,29.95,10,2,14,0.00
2013-5-15,61.1,49.9,38.5,49.4,38.6,28.3,95,68,29,30.03,29.65,17,4,19,0.19
2013-5-16,78.1,62.7,46.0,55.0,46.2,38.4,99,62,24,29.78,29.56,11,3,17,0.00
2013-5-17,66.3,57.6,49.1,44.5,42.1,37.2,80,58,35,30.21,29.79,12,3,18,0.00
2013-5-18,55.5,50.3,43.5,47.6,45.0,41.3,92,82,64,30.34,30.21,19,4,21,0.00
2013-5-19,53.7,50.3,48.9,49.4,48.0,46.4,99,92,81,30.39,30.25,12,4,14,0.07
2013-5-20,70.9,57.5,49.2,64.0,55.9,48.9,100,95,77,30.24,29.92,7,2,8,0.35
2013-5-21,55.9,50.0,47.9,55.1,49.2,47.2,99,97,94,30.11,29.96,12,4,17,0.14
2013-5-22,52.6,49.6,48.3,51.3,49.0,47.9,99,98,94,30.02,29.91,9,3,12,0.50
2013-5-23,63.3,54.9,48.0,61.5,53.9,47.7,100,97,88,29.96,29.81,13,3,19,0.12
2013-5-24,64.1,58.5,50.0,63.7,58.1,48.6,100,99,95,29.83,29.64,14,4,17,1.40
2013-5-25,52.4,48.5,46.0,50.2,47.4,45.3,99,96,89,29.83,29.64,21,6,26,0.49
2013-5-26,56.6,49.5,44.6,46.1,43.3,39.7,99,81,58,30.00,29.59,14,4,18,0.06
2013-5-27,68.7,55.9,40.6,43.9,38.5,34.5,90,57,29,30.16,30.00,16,3,18,0.00
2013-5-28,71.2,57.5,43.6,49.2,42.3,36.4,95,61,29,30.24,30.16,12,2,17,0.00
2013-5-29,56.8,53.0,49.7,56.5,52.5,48.5,99,98,94,30.19,30.00,5,1,7,0.18
2013-5-30,82.1,67.5,53.1,68.1,61.4,52.8,100,83,54,30.03,29.95,7,2,11,0.00
2013-5-31,93.6,76.7,59.7,71.3,65.3,58.3,98,71,44,30.05,29.87,8,2,12,0.00
2013-6-1,91.9,78.2,67.4,74.5,67.0,63.0,88,69,55,29.91,29.80,14,3,19,0.00
2013-6-2,78.2,72.7,65.9,69.6,66.5,61.7,97,81,70,29.81,29.67,25,3,25,0.11
2013-6-3,74.2,66.3,60.4,69.0,63.5,54.9,99,91,76,29.81,29.71,12,2,17,0.05
2013-6-4,66.1,60.7,51.8,55.0,47.5,42.9,93,63,46,30.06,29.78,13,3,15,0.00
2013-6-5,67.5,59.4,49.7,51.6,46.7,40.3,84,64,40,30.17,30.06,10,2,13,0.00
2013-6-6,64.0,57.9,54.6,55.6,51.7,47.2,97,81,56,30.22,30.14,11,3,12,0.00
2013-6-7,57.3,54.3,51.2,54.6,52.1,48.8,98,92,78,30.15,29.93,12,4,14,0.79
2013-6-8,72.4,59.4,52.9,62.8,56.5,52.3,99,91,69,29.97,29.64,12,3,16,0.97
2013-6-9,73.1,63.2,57.3,64.5,59.0,56.4,98,87,70,30.14,29.97,8,2,11,0.00
2013-6-10,65.6,60.8,56.5,57.4,55.8,53.0,97,84,72,30.22,30.05,7,1,10,0.03
2013-6-11,57.0,54.6,53.5,55.9,54.0,52.9,99,98,93,30.06,29.55,17,4,19,0.97
2013-6-12,62.8,58.7,54.5,58.3,56.0,54.0,99,91,80,29.76,29.52,10,3,15,0.11
2013-6-13,68.6,60.0,53.2,56.3,54.0,51.5,98,82,59,29.80,29.72,8,2,10,0.00
2013-6-14,74.0,61.1,53.7,60.2,56.0,52.7,99,85,54,29.74,29.65,6,1,10,0.05
2013-6-15,75.6,65.7,54.5,57.2,49.6,44.5,99,60,35,29.89,29.73,9,2,12,0.00
2013-6-16,76.2,64.4,55.1,59.4,54.3,48.1,91,71,51,29.90,29.70,11,2,12,0.00
2013-6-17,81.7,68.8,58.7,66.3,61.1,57.3,96,78,49,29.86,29.72,15,2,15,0.00
2013-6-18,65.2,60.9,57.2,61.6,58.0,55.3,98,90,76,29.99,29.84,5,1,8,0.12
2013-6-19,74.6,63.5,53.3,57.8,52.8,48.1,99,71,41,30.14,29.92,8,2,9,0.00
2013-6-20,74.0,63.4,50.2,57.9,52.5,47.9,92,70,48,30.26,30.14,10,2,14,0.00
2013-6-21,77.8,65.9,55.1,61.9,58.3,54.3,97,78,48,30.23,30.18,9,2,12,0.00
2013-6-22,81.9,67.9,59.7,67.6,62.9,58.6,97,85,62,30.20,30.09,8,1,10,0.00
2013-6-23,79.3,69.2,62.8,70.7,65.7,61.7,100,89,70,30.14,29.95,6,1,9,1.36
2013-6-24,92.0,78.1,66.6,75.8,70.4,66.0,100,80,53,29.97,29.80,4,1,7,0.00
2013-6-25,90.8,77.7,67.7,75.8,69.9,65.0,98,78,61,29.86,29.69,8,2,11,0.76
2013-6-26,78.6,67.2,56.6,73.3,65.2,56.0,100,94,78,29.89,29.68,13,2,19,0.12
2013-6-27,59.1,56.2,54.3,57.4,55.6,53.9,100,98,94,29.89,29.82,10,3,10,0.48
2013-6-28,64.9,59.1,54.6,64.9,59.1,54.6,100,100,100,29.83,29.52,10,3,20,0.82
2013-6-29,73.9,66.9,62.9,72.2,65.8,62.5,100,96,87,29.69,29.53,14,3,16,0.01
2013-6-30,83.4,71.5,63.3,74.7,68.1,63.0,100,90,73,29.92,29.69,11,2,14,0.00
2013-7-1,80.6,67.7,62.3,74.5,66.4,62.3,100,96,80,30.09,29.92,5,1,7,1.76
2013-7-2,64.5,60.1,55.9,64.5,60.1,55.9,100,100,100,30.22,30.08,8,2,9,0.33
2013-7-3,71.0,62.6,57.0,67.3,61.7,57.0,100,97,88,30.21,30.08,7,2,10,0.07
2013-7-4,86.9,76.4,63.5,77.6,71.8,63.2,100,86,69,30.16,30.03,13,2,14,0.00
2013-7-5,92.3,81.1,73.2,76.9,74.0,69.9,94,80,54,30.11,29.98,12,2,14,0.00
2013-7-6,89.9,81.7,74.3,76.0,72.9,65.1,94,76,60,30.02,29.92,5,1,8,0.03
2013-7-7,88.3,78.0,68.5,73.4,69.1,64.8,92,75,53,29.97,29.90,4,1,6,0.01
2013-7-8,73.1,68.5,63.4,71.4,65.6,59.4,98,91,76,30.07,29.89,10,2,13,0.14
2013-7-9,68.5,63.2,60.3,64.5,61.8,60.0,99,95,77,30.12,30.07,10,2,10,0.10
2013-7-10,65.3,61.6,59.6,65.3,61.3,59.3,100,99,97,30.09,29.77,10,2,11,0.08
2013-7-11,76.5,69.9,65.3,74.7,69.2,65.3,100,98,87,29.95,29.74,5,1,6,0.03
2013-7-12,76.1,68.7,62.1,66.0,61.2,58.8,93,78,62,30.21,29.95,8,2,12,0.00
2013-7-13,78.3,68.7,59.8,65.3,62.4,59.2,99,82,55,30.32,30.21,7,2,9,0.00
2013-7-14,86.9,75.5,64.0,73.0,68.7,63.4,99,81,59,30.28,30.17,8,2,9,0.00
2013-7-15,93.2,82.2,70.4,74.7,71.4,67.1,98,72,45,30.18,30.06,12,1,12,0.00
2013-7-16,88.8,79.7,72.2,78.6,70.6,67.4,89,74,59,30.15,30.08,12,1,12,0.16
2013-7-17,84.4,76.7,68.0,75.2,70.7,66.6,98,82,69,30.17,29.91,22,3,22,0.07
2013-7-18,82.8,75.0,68.1,74.8,71.0,67.0,99,88,68,30.00,29.91,15,2,15,0.13
2013-7-19,96.5,79.5,67.9,79.4,73.2,67.4,100,83,54,29.94,29.64,8,1,11,0.00
2013-7-20,91.4,82.0,74.1,76.9,71.1,67.5,86,70,54,29.76,29.61,5,2,9,0.00
2013-7-21,73.7,69.1,63.2,67.9,62.1,54.5,97,79,57,30.01,29.77,10,2,12,0.00
2013-7-22,70.4,65.7,62.8,65.9,63.7,61.7,99,93,82,30.04,29.92,6,2,8,0.00
2013-7-23,69.0,65.2,62.4,68.0,64.7,62.1,100,98,94,29.92,29.54,6,1,10,0.94
2013-7-24,78.8,70.3,60.0,73.3,66.0,52.4,100,87,67,29.97,29.56,10,2,11,0.01
2013-7-25,70.1,62.0,57.0,60.5,55.3,50.7,95,79,65,30.12,29.97,9,2,11,0.02
2013-7-26,70.4,65.9,61.6,65.8,63.2,60.5,97,91,84,30.08,29.89,7,2,16,0.17
2013-7-27,81.7,71.6,61.9,70.7,65.2,61.3,98,82,56,30.02,29.92,10,2,11,0.00
2013-7-28,67.1,64.0,62.0,65.1,63.3,61.4,100,98,91,30.04,30.00,6,2,8,0.06
2013-7-29,70.6,63.5,59.7,67.5,62.8,59.7,100,98,90,30.05,29.99,9,2,13,0.12
2013-7-30,79.2,68.6,59.6,68.2,62.8,56.8,100,83,49,30.07,30.00,7,1,9,0.00
2013-7-31,79.4,68.6,57.8,64.3,60.3,56.3,96,76,54,30.11,30.03,9,2,13,0.00
2013-8-1,75.2,66.3,58.9,68.3,63.6,58.0,99,91,73,30.04,29.87,11,2,16,0.00
2013-8-2,75.7,67.4,62.3,69.4,65.3,62.0,99,93,79,29.87,29.74,9,2,13,0.49
2013-8-3,80.8,68.9,59.6,65.4,60.7,58.0,99,77,50,29.82,29.72,6,1,8,0.01
2013-8-4,77.6,66.4,57.9,63.9,59.3,55.3,92,79,55,29.84,29.73,10,1,13,0.09
2013-8-5,75.0,64.0,53.7,56.2,52.0,44.3,94,67,44,30.03,29.83,9,2,13,0.00
2013-8-6,76.2,64.4,52.1,59.7,52.6,45.8,90,67,46,30.15,30.02,13,2,13,0.00
2013-8-7,73.5,64.2,53.4,65.4,59.3,51.5,95,85,64,30.19,30.11,10,3,12,0.00
2013-8-8,76.7,68.7,62.7,70.8,65.4,60.3,97,89,81,30.11,29.99,10,3,13,0.30
2013-8-9,69.6,67.9,66.1,69.4,67.5,65.8,100,99,96,30.00,29.72,15,4,19,0.70
2013-8-10,82.1,72.5,62.9,70.2,60.8,50.4,100,71,37,29.98,29.74,6,2,11,0.01
2013-8-11,76.9,65.7,53.7,59.7,55.6,50.8,90,72,45,30.05,29.97,7,2,12,0.00
2013-8-12,77.6,67.7,56.8,64.7,59.8,54.8,94,77,56,30.00,29.89,12,2,12,0.00
2013-8-13,73.1,66.6,59.6,66.6,62.8,58.3,99,88,72,29.90,29.68,8,1,14,0.00
2013-8-14,76.2,67.5,60.5,66.7,59.6,51.1,100,78,47,29.89,29.62,8,2,17,0.00
2013-8-15,76.8,64.6,53.0,56.2,53.6,50.5,93,70,46,30.07,29.89,5,1,9,0.00
2013-8-16,75.7,64.8,54.5,60.5,57.1,52.7,94,77,55,30.16,30.06,7,2,9,0.00
2013-8-17,77.1,66.4,56.7,62.0,58.0,53.8,98,76,54,30.26,30.16,7,2,10,0.00
2013-8-18,74.3,65.0,55.0,64.3,59.5,53.9,97,83,62,30.27,30.04,7,1,9,0.00
2013-8-19,84.8,72.5,59.1,67.3,62.8,58.3,98,74,47,30.04,29.88,6,1,7,0.00
2013-8-20,85.4,72.6,63.2,69.4,64.1,61.2,95,76,55,30.06,29.93,8,2,10,0.00
2013-8-21,85.9,72.7,62.8,69.9,65.6,61.3,97,80,57,30.11,29.97,11,2,11,0.00
2013-8-22,90.2,77.0,65.9,71.0,67.7,62.6,93,75,45,29.98,29.75,17,2,17,0.00
2013-8-23,79.8,72.1,62.4,69.4,57.8,49.5,87,63,36,30.13,29.75,16,2,16,0.00
2013-8-24,76.3,64.9,54.7,55.8,51.4,48.9,84,63,43,30.30,30.13,11,2,11,0.00
2013-8-25,76.3,65.3,53.3,60.2,56.0,51.4,96,74,49,30.35,30.13,15,2,15,0.00
2013-8-26,81.2,69.3,61.4,69.7,63.9,56.9,97,84,66,30.14,29.85,9,1,9,0.19
2013-8-27,80.0,70.5,63.5,69.2,65.8,62.8,99,86,66,29.89,29.83,10,1,11,0.00
2013-8-28,69.1,64.5,62.3,66.5,63.8,62.0,100,97,88,30.00,29.86,12,2,13,0.02
2013-8-29,68.8,64.4,60.8,65.0,62.0,58.1,100,92,81,30.10,29.97,10,2,13,0.00
2013-8-30,80.2,68.3,59.4,69.3,63.4,57.7,95,85,68,30.02,29.76,14,2,14,0.00
2013-8-31,81.5,71.3,65.3,72.8,68.4,64.1,97,91,74,29.81,29.74,14,2,14,0.00
2013-9-1,79.8,72.0,66.0,73.8,69.3,65.4,100,91,74,29.91,29.74,12,2,12,0.00
2013-9-2,67.7,65.1,61.3,67.6,65.1,61.3,100,100,99,29.89,29.73,23,3,23,3.38
2013-9-3,76.7,69.2,65.1,71.8,67.9,62.8,100,96,84,29.76,29.68,13,2,13,0.01
2013-9-4,80.7,69.5,58.9,63.2,59.8,56.8,98,74,46,29.87,29.73,10,1,10,0.00
2013-9-5,66.8,60.7,53.9,61.0,54.6,44.6,96,81,60,30.14,29.85,14,2,14,0.11
2013-9-6,66.8,57.2,45.7,53.3,46.8,41.1,91,70,43,30.23,30.03,12,2,12,0.00
2013-9-7,79.3,64.5,49.3,61.0,52.5,46.0,90,67,41,30.04,29.78,11,1,11,0.01
2013-9-8,67.5,61.5,49.4,60.5,49.7,40.5,90,66,47,30.07,29.71,21,3,21,0.02
2013-9-9,68.7,56.3,43.7,55.7,47.4,40.2,90,73,46,30.21,30.07,16,2,16,0.00
2013-9-10,66.7,61.0,55.4,64.5,58.2,50.8,99,91,80,30.12,30.01,11,1,11,0.07
2013-9-11,93.1,72.0,0.0,78.6,68.2,0.0,100,88,1,30.04,29.89,32,1,32,0.23
2013-9-12,78.4,68.4,64.7,73.1,67.4,64.4,100,97,81,29.93,29.58,12,2,14,1.68
2013-9-13,68.8,63.7,58.1,67.9,63.5,56.9,100,99,95,29.72,29.58,12,1,12,1.10
2013-9-14,70.0,62.3,56.0,61.3,55.9,50.9,97,80,64,30.02,29.71,10,2,10,0.00
2013-9-15,59.6,51.3,47.5,52.6,49.3,47.0,98,93,76,30.12,30.02,6,0,6,0.00
2013-9-17,65.3,56.1,43.4,50.2,44.5,38.0,91,67,46,30.41,30.29,12,2,12,0.00
2013-9-18,70.6,56.0,43.8,53.7,48.3,42.5,96,78,43,30.29,30.09,12,2,12,0.00
2013-9-19,73.7,59.5,46.7,54.3,50.5,45.9,98,75,44,30.12,30.02,9,1,9,0.00
2013-9-20,71.2,58.6,49.2,57.7,53.8,48.5,99,86,57,30.10,30.01,12,2,12,0.00
2013-9-21,66.8,60.7,53.6,62.8,59.1,53.3,100,94,86,30.02,29.74,20,3,20,0.01
2013-9-22,72.7,63.9,51.4,65.8,58.7,46.4,99,84,55,29.77,29.58,23,4,23,0.30
2013-9-23,59.1,52.1,45.2,46.4,42.7,39.4,91,71,58,29.96,29.76,18,3,18,0.00
2013-9-24,59.1,49.7,39.9,46.3,42.8,38.1,94,78,56,29.95,29.82,9,2,15,0.00
2013-9-25,61.7,54.4,44.9,50.4,46.9,42.6,93,77,62,29.99,29.87,17,2,17,0.00
2013-9-26,66.2,57.1,47.3,53.9,49.8,44.5,90,77,62,30.13,29.98,18,2,18,0.00
2013-9-27,69.2,60.4,54.1,57.7,53.7,50.8,95,79,63,30.25,30.12,9,1,9,0.00
2013-9-28,67.5,57.7,51.4,56.8,53.5,50.6,99,87,66,30.34,30.24,15,2,15,0.00
2013-9-29,60.2,52.9,47.4,55.9,51.3,46.9,99,95,78,30.27,30.13,13,2,13,0.01
2013-9-30,59.4,50.2,42.5,54.2,48.7,42.2,99,95,75,30.14,29.97,9,1,11,0.01
2013-10-1,75.5,60.0,46.9,57.7,52.5,46.5,99,79,50,29.97,29.82,8,1,8,0.01
2013-10-3,74.5,64.4,52.4,57.3,53.7,48.7,96,71,42,30.06,29.98,9,2,12,0.00
2013-10-4,74.1,59.8,49.6,56.8,52.2,48.3,99,78,46,30.09,30.01,6,1,9,0.00
2013-10-5,60.4,57.0,53.4,54.9,50.9,47.6,96,80,67,30.15,30.07,7,2,8,0.00
2013-10-6,54.2,52.2,50.3,53.3,47.3,41.4,97,84,69,30.28,30.13,13,5,18,0.13
2013-10-7,66.3,60.4,53.9,65.4,60.0,53.3,100,99,94,30.19,29.79,23,6,23,0.44
2013-10-8,62.4,56.4,45.3,58.1,46.3,41.2,93,70,48,30.39,29.83,8,2,11,0.00
2013-10-9,58.1,49.0,39.9,45.6,42.5,38.0,95,80,56,30.49,30.37,8,1,9,0.00
2013-10-10,63.9,50.0,40.0,52.7,46.4,39.2,98,88,51,30.37,30.19,6,1,9,0.00
2013-10-11,63.8,55.4,45.9,53.8,50.6,45.4,99,85,59,30.19,30.12,6,1,6,0.01
2013-10-12,56.2,53.4,47.7,54.0,50.7,46.0,97,91,82,30.42,30.17,14,4,22,0.00
2013-10-13,56.9,50.7,43.9,50.2,47.6,43.1,98,89,72,30.48,30.40,7,2,9,0.00
2013-10-14,60.3,51.4,41.5,52.2,46.8,41.0,98,86,63,30.40,30.25,9,2,12,0.01
2013-10-15,62.9,56.3,52.3,54.7,52.9,50.3,97,89,73,30.28,30.21,9,2,9,0.00
2013-10-16,57.5,55.4,54.0,55.5,54.3,52.9,99,96,90,30.20,29.91,9,2,12,0.00
2013-10-17,71.1,59.1,53.3,59.8,55.8,52.6,99,90,65,29.90,29.70,9,2,12,0.01
2013-10-18,67.8,59.7,52.9,59.6,52.8,45.2,100,80,55,29.83,29.57,12,4,15,0.22
2013-10-19,52.4,49.3,45.7,45.4,41.5,39.3,79,74,72,29.90,29.84,5,2,8,0.00
2013-10-20,61.4,55.6,47.4,49.0,37.8,35.2,87,52,38,29.97,29.70,17,5,21,0.00
2013-10-21,62.4,51.8,42.1,51.7,43.4,36.8,88,74,48,30.08,29.97,9,3,11,0.00
2013-10-22,60.7,54.4,46.3,54.9,50.3,41.9,95,86,77,29.97,29.69,12,3,18,0.00
2013-10-23,52.7,46.0,37.0,42.1,39.4,34.6,92,78,56,29.77,29.58,9,2,11,0.00
2013-10-24,51.2,45.5,38.8,37.2,32.8,29.9,80,62,45,29.82,29.59,12,4,15,0.00
2013-10-25,48.4,41.5,33.2,36.4,31.9,26.5,88,69,49,30.10,29.83,14,4,17,0.00
2013-10-26,51.3,42.7,30.4,37.8,31.7,26.4,90,66,49,30.11,29.87,9,3,14,0.00
2013-10-27,54.4,47.1,39.1,41.1,37.2,29.5,91,69,49,30.02,29.78,10,3,17,0.05
2013-10-28,56.6,43.6,35.0,38.1,31.3,25.4,81,63,48,30.35,30.01,23,4,23,0.00
2013-10-29,40.8,34.8,31.9,27.8,25.7,24.2,78,69,53,30.45,30.35,13,2,13,0.00
2013-10-30,49.6,39.1,31.3,33.0,30.0,26.1,87,71,51,30.35,30.17,8,2,10,0.00
2013-10-31,55.8,43.7,30.7,55.2,41.5,29.2,99,92,82,30.25,29.77,12,2,16,0.25
2013-11-1,68.5,59.9,55.1,61.2,56.4,51.5,99,89,68,29.77,29.36,19,6,24,0.13
2013-11-2,64.7,56.2,48.3,51.2,45.6,43.3,93,69,48,29.73,29.56,9,2,9,0.05
2013-11-3,49.1,39.7,32.7,46.9,28.5,19.6,92,65,47,30.42,29.73,13,5,18,0.00
2013-11-4,41.6,34.2,28.1,24.4,20.3,18.3,85,58,40,30.71,30.43,9,3,12,0.00
2013-11-5,46.9,37.6,27.9,35.5,30.2,22.8,87,75,59,30.72,30.50,12,2,15,0.00
2013-11-6,54.6,47.2,38.3,49.8,42.4,33.9,94,83,72,30.50,29.98,15,4,17,0.00
2013-11-7,59.3,52.2,42.5,56.9,48.0,31.4,95,86,64,29.98,29.62,14,4,15,0.02
2013-11-8,44.9,39.6,32.6,32.0,26.8,24.0,76,60,49,30.00,29.77,16,5,16,0.00
2013-11-9,43.8,38.2,30.4,29.6,24.0,21.7,70,57,43,30.13,30.00,10,3,17,0.00
2013-11-10,43.9,41.1,36.7,40.8,37.4,30.0,95,87,70,30.07,29.72,9,2,10,0.04
2013-11-11,45.1,41.7,36.2,37.0,31.2,28.0,82,67,54,30.03,29.75,10,4,13,0.00
2013-11-12,44.8,34.2,26.6,34.9,22.3,16.2,86,62,53,30.12,29.83,12,6,16,0.00
2013-11-13,34.6,28.2,22.5,17.0,14.8,11.9,74,57,42,30.24,30.09,10,3,12,0.00
2013-11-14,48.9,37.9,28.4,31.1,24.7,13.9,72,59,48,30.09,29.98,9,3,11,0.00
2013-11-15,52.8,41.9,31.9,39.5,28.9,22.0,87,63,32,30.17,30.07,9,2,13,0.00
2013-11-16,50.8,41.7,34.9,42.0,35.0,28.7,98,78,55,30.34,30.17,5,1,6,0.00
2013-11-17,53.0,46.2,37.6,52.7,45.3,37.1,99,97,93,30.35,29.90,14,3,16,0.11
2013-11-18,63.2,55.5,47.5,57.2,49.0,36.9,100,81,50,29.90,29.48,23,5,28,0.22
2013-11-19,47.7,37.7,31.8,36.7,22.9,17.6,66,55,47,30.22,29.58,18,8,24,0.00
2013-11-20,39.7,33.2,28.7,17.2,15.3,12.2,60,48,33,30.63,30.22,18,5,22,0.00
2013-11-21,47.0,34.9,22.9,28.1,19.4,13.4,83,55,29,30.64,30.34,7,2,9,0.00
2013-11-22,39.7,37.1,34.0,36.6,30.9,22.1,93,79,57,30.34,29.77,4,1,6,0.02
2013-11-23,41.1,36.5,28.1,39.2,25.4,16.4,96,67,37,29.83,29.69,23,7,24,0.00
2013-11-24,28.6,22.6,19.4,22.1,7.1,2.8,78,51,42,30.02,29.69,23,11,27,0.00
2013-11-25,30.4,24.1,17.6,14.4,3.6,-0.9,58,42,28,30.32,30.02,21,5,23,0.00
2013-11-26,34.0,31.5,26.5,32.4,24.6,13.2,95,76,50,30.32,30.14,8,2,10,0.06
2013-11-27,59.1,48.0,33.7,59.1,47.6,32.4,100,99,95,30.14,29.15,26,7,30,2.08
2013-11-28,38.8,29.9,21.2,38.2,17.6,7.3,98,61,41,30.40,29.30,18,7,22,0.00
2013-11-29,27.7,22.0,16.9,12.7,9.6,5.1,75,59,38,30.75,30.40,13,4,13,0.00
2013-11-30,30.6,23.5,16.6,23.6,15.2,8.9,84,70,57,30.82,30.43,7,2,10,0.00
2013-12-1,35.6,33.4,30.5,35.1,30.7,22.9,98,90,73,30.42,30.05,10,2,16,0.43
2013-12-2,36.4,34.8,33.1,35.9,34.3,32.6,99,98,97,30.05,29.92,9,4,11,0.02
2013-12-3,44.5,37.9,32.8,40.0,35.3,29.9,99,91,77,29.92,29.84,8,3,11,0.00
2013-12-4,40.3,33.9,28.8,29.7,27.9,25.2,93,79,61,30.21,29.89,11,2,12,0.00
2013-12-5,41.7,34.9,28.3,41.2,33.4,26.7,99,94,90,30.25,29.90,5,1,7,0.02
2013-12-6,44.3,40.5,33.6,44.0,39.0,31.8,100,95,72,30.13,29.85,5,1,8,0.18
2013-12-7,37.6,32.1,25.3,33.4,23.2,12.1,97,72,46,30.42,30.07,16,3,16,0.08
2013-12-8,28.5,26.5,22.0,14.6,12.7,11.0,66,56,49,30.57,30.42,8,2,10,0.00
2013-12-9,37.2,29.4,24.6,36.7,25.5,13.5,98,86,55,30.53,29.84,23,7,26,0.07
2013-12-10,32.7,29.4,21.3,30.8,27.3,16.1,97,92,79,29.92,29.73,7,3,10,0.00
2013-12-11,30.0,23.9,18.8,18.9,16.0,13.7,86,72,56,30.14,29.92,11,3,13,0.00
2013-12-12,21.1,16.8,13.1,17.1,3.7,-3.2,85,57,37,30.25,30.01,12,4,16,0.00
2013-12-13,25.3,16.4,7.0,12.8,4.7,-4.4,73,60,41,30.40,29.92,21,5,21,0.00
2013-12-14,15.0,9.7,3.1,13.1,-0.1,-7.3,92,65,47,30.64,30.35,16,5,23,0.00
2013-12-15,19.9,16.0,12.6,15.5,13.2,10.6,93,89,77,30.35,29.42,26,7,29,0.00
2013-12-16,24.8,19.0,8.3,16.5,8.8,-2.4,92,66,43,30.21,29.66,15,5,21,0.00
2013-12-17,14.3,9.1,2.7,10.7,1.8,-7.4,92,72,58,30.31,30.03,13,4,13,0.00
2013-12-18,32.1,22.4,11.5,25.4,17.5,9.3,93,82,62,30.03,29.84,11,4,15,0.01
2013-12-19,34.5,29.2,21.8,25.5,22.8,17.8,85,77,69,30.08,29.92,11,2,11,0.00
2013-12-20,42.6,34.8,30.4,38.5,31.5,24.8,94,88,78,30.12,29.90,4,1,5,0.05
2013-12-21,38.7,35.4,33.1,37.6,34.4,32.2,98,96,93,29.95,29.83,8,2,9,0.12
2013-12-22,34.7,29.9,26.9,34.1,29.1,26.0,98,97,95,30.08,29.88,12,5,17,0.26
2013-12-23,33.1,30.1,26.9,32.6,29.5,26.2,98,98,97,30.11,29.97,7,2,8,0.00
2013-12-24,33.5,26.9,16.0,33.0,23.8,11.2,98,88,80,30.18,30.06,11,2,11,0.00
2013-12-25,19.4,14.3,8.7,14.9,8.3,1.1,90,77,68,30.56,30.18,18,4,19,0.01
2013-12-26,25.2,20.8,16.5,24.0,18.5,13.4,96,90,77,30.52,30.08,8,1,10,0.00
2013-12-27,32.5,24.5,15.5,26.5,20.4,13.6,94,84,73,30.21,30.13,10,3,14,0.01
2013-12-28,37.7,30.8,21.3,32.2,26.0,18.3,89,82,73,30.17,29.93,13,3,14,0.04
2013-12-29,36.3,31.9,25.5,34.0,30.5,24.5,98,94,88,30.02,29.50,13,2,16,0.58
2013-12-30,34.7,24.5,8.7,32.6,19.5,0.9,97,82,60,30.19,29.51,14,4,17,0.00
2013-12-31,12.4,8.7,4.7,8.1,3.4,-2.2,90,78,68,30.19,30.04,7,2,11,0.00
2014-1-1,21.6,14.6,6.6,9.0,6.8,3.8,91,72,53,30.40,30.12,12,3,15,0.00
2014-1-2,13.9,1.3,-4.8,6.6,-2.6,-8.1,87,84,72,30.43,29.99,21,8,23,0.00